Rock Springs, Wisconsin
Current Conditions -  °F | °C
As of 6:15 AM on Thursday 29 Jan 2015 (Local Time) from KC35 Reporting Station
Overcast Overcast  
Wind Chill: 21°   Ceiling: 1200
Heat Index: 30°   Visibility: 7mi
Dew Point: 27°   Wind: 10mph
Humidity: 88%   Direction: 320°NW
Pressure: 29.85"   Gusts: NA
Location:  43.49°N, 89.92°W
Report Text: KC35 291215Z AUTO 32009KT 7SM OVC012 M01/M03 A2985 RMK AO2 T10131030
Loading
Personal Weather Stations






























Interactive Weather Map New forecast layout! Learn more

10-Day Weather Forecast

Advertisements
Track Severe Weather on mobile